หน้าหลัก
METAR-TAF:

METAR-TAF

ท่าอากาศยาน :

แอเบอร์ดีน, สกอตแลนด์

ละติจูด: 57-12N, ลองจิจูด: 002-13W, ความสูง: 65 ม.

การสังเกตสภาพอากาศปัจจุบัน

รายงานได้ทำขึ้นเมื่อ 35 นาทีที่แล้ว ณ เวลา 01:20 UTC
ลม 6 นอตจากตะวันตกเฉียงเหนือ
อุณหภูมิ 7°C
ความชื้น 93%
ความกดอากาศ 1021 hPa
ทัศนวิสัย 10 กม. หรือมากกว่า
มีเมฆน้อยที่ความสูง 1700 ฟุต

METAR: EGPD 190120Z AUTO 31006KT 9999 FEW017 07/06 Q1021

เวลา: 02:55 (01:55 UTC)

การพยากรณ์

รายงานได้ทำขึ้นเมื่อ 2 ชั่วโมงและ 59 นาทีที่แล้ว ณ เวลา 22:56 UTC
การพยากรณ์มีผลตั้งแต่วันที่ 19 ณ เวลา 00 UTC จนถึงวันที่ 19 ณ เวลา 24 UTC
ลม 5 นอตจากตะวันตกเฉียงเหนือ
ทัศนวิสัย 10 กม. หรือมากกว่า
มีเมฆกระจายเป็นบางส่วนที่ความสูง 3500 ฟุต
กำลังกลายเป็น
ตั้งแต่วันที่ 19 ณ เวลา 09 UTC จนถึงวันที่ 19 ณ เวลา 12 UTC
ลม 12 นอตจากใต้
กำลังกลายเป็น
ตั้งแต่วันที่ 19 ณ เวลา 15 UTC จนถึงวันที่ 19 ณ เวลา 18 UTC
ลม 9 นอตจากตะวันตก

TAF: EGPD 182256Z 1900/1924 31005KT 9999 SCT035 BECMG 1909/1912 19012KT BECMG 1915/1918 26009KT

สังเกตการณ์สภาพอากาศและพยากรณ์อากาศของสนามบินมากกว่า 4000 แห่ง (รายงาน METAR และ TAF).

สถานีที่ดูได้จะแสดงไว้ด้วยจุดสีเหลืองและสีแดงบนแผนที่.

เลื่อนเมาส์ไปเหนือจุดเพื่อดูชื่อสถานี.

แล้วคลิกเพื่อดูสังเกตการณ์และการพยากรณ์สภาพอากาศ.

ในการเปลี่ยนแผนที่: คลิกที่ปุ่มสีเขียวที่มีกากบาทสีดำเพื่อซูมเข้า; ที่ปุ่มสีเขียวที่มีขีดเพื่อซูมออก; หรือที่ลูกศรสีเขียวเพื่อไปยังแผนที่ที่อยู่ติดกัน.


METAR-TAF: